Terminal Aerodrome Forecast
Issued by NWS Albany, NY

Home | Current Version | Previous Version | Text Only | Print | Product List | Glossary On
Versions: 1 2 3 4 5 6 7 8 9 10 11 12 13 14 15 16 17 18 19 20 21 22 23 24
000
FTUS41 KALY 012300
TAFGFL
TAF
KGFL 012338Z 0200/0224 03004KT P6SM BKN035 OVC070
     FM020300 VRB03KT P6SM BKN025 OVC050
     FM020600 VRB03KT 4SM BR OVC025
     FM020900 00000KT 3SM BR OVC015
     FM021400 VRB03KT P6SM OVC025
     FM021700 10004KT P6SM SCT025 OVC050
     FM022000 13005KT P6SM BKN050=

USA.gov is the U.S. government's official web portal to all federal, state and local government web resources and services.